sensor_id;sensor_type;location;lat;lon;timestamp;pressure;altitude;pressure_sealevel;temperature;humidity
76358;BME280;65185;21.060;105.826;2023-09-18T00:00:29;101032.16;;;26.49;100.00
76358;BME280;65185;21.060;105.826;2023-09-18T00:02:56;101040.25;;;26.48;100.00
76358;BME280;65185;21.060;105.826;2023-09-18T00:05:22;101045.56;;;26.48;100.00
76358;BME280;65185;21.060;105.826;2023-09-18T00:07:49;101047.47;;;26.46;100.00
76358;BME280;65185;21.060;105.826;2023-09-18T00:10:15;101055.31;;;26.47;100.00
76358;BME280;65185;21.060;105.826;2023-09-18T00:12:42;101067.09;;;26.43;100.00
76358;BME280;65185;21.060;105.826;2023-09-18T00:15:09;101070.72;;;26.42;100.00
76358;BME280;65185;21.060;105.826;2023-09-18T00:17:36;101066.25;;;26.43;100.00
76358;BME280;65185;21.060;105.826;2023-09-18T00:20:03;101066.16;;;26.44;100.00
76358;BME280;65185;21.060;105.826;2023-09-18T00:22:33;101068.81;;;26.44;100.00
76358;BME280;65185;21.060;105.826;2023-09-18T00:24:59;101071.28;;;26.47;100.00
76358;BME280;65185;21.060;105.826;2023-09-18T00:27:27;101069.38;;;26.49;100.00
76358;BME280;65185;21.060;105.826;2023-09-18T00:29:53;101068.34;;;26.52;100.00
76358;BME280;65185;21.060;105.826;2023-09-18T00:32:20;101070.03;;;26.53;100.00
76358;BME280;65185;21.060;105.826;2023-09-18T00:34:46;101076.00;;;26.56;100.00
76358;BME280;65185;21.060;105.826;2023-09-18T00:37:13;101075.06;;;26.57;100.00
76358;BME280;65185;21.060;105.826;2023-09-18T00:39:40;101076.75;;;26.58;100.00
76358;BME280;65185;21.060;105.826;2023-09-18T00:42:07;101087.38;;;26.58;100.00
76358;BME280;65185;21.060;105.826;2023-09-18T00:44:39;101084.81;;;26.57;100.00
76358;BME280;65185;21.060;105.826;2023-09-18T00:47:07;101077.78;;;26.56;100.00
76358;BME280;65185;21.060;105.826;2023-09-18T00:49:33;101080.16;;;26.60;100.00
76358;BME280;65185;21.060;105.826;2023-09-18T00:52:01;101076.53;;;26.61;100.00
76358;BME280;65185;21.060;105.826;2023-09-18T00:54:28;101087.09;;;26.63;100.00
76358;BME280;65185;21.060;105.826;2023-09-18T00:56:55;101083.25;;;26.67;100.00
76358;BME280;65185;21.060;105.826;2023-09-18T00:59:23;101091.91;;;26.71;100.00
76358;BME280;65185;21.060;105.826;2023-09-18T01:01:50;101090.97;;;26.72;100.00
76358;BME280;65185;21.060;105.826;2023-09-18T01:04:17;101094.19;;;26.77;100.00
76358;BME280;65185;21.060;105.826;2023-09-18T01:06:44;101090.66;;;26.76;100.00
76358;BME280;65185;21.060;105.826;2023-09-18T01:09:13;101088.69;;;26.80;100.00
76358;BME280;65185;21.060;105.826;2023-09-18T01:17:00;101096.97;;;26.88;100.00
76358;BME280;65185;21.060;105.826;2023-09-18T01:19:43;101088.91;;;26.89;100.00
76358;BME280;65185;21.060;105.826;2023-09-18T01:22:19;101093.16;;;26.92;100.00
76358;BME280;65185;21.060;105.826;2023-09-18T01:24:48;101098.28;;;26.95;100.00
76358;BME280;65185;21.060;105.826;2023-09-18T01:27:18;101098.09;;;26.98;100.00
76358;BME280;65185;21.060;105.826;2023-09-18T01:29:46;101089.78;;;27.02;100.00
76358;BME280;65185;21.060;105.826;2023-09-18T01:32:14;101089.38;;;27.08;100.00
76358;BME280;65185;21.060;105.826;2023-09-18T01:34:46;101089.81;;;27.15;100.00
76358;BME280;65185;21.060;105.826;2023-09-18T01:37:18;101087.06;;;27.16;100.00
76358;BME280;65185;21.060;105.826;2023-09-18T01:39:49;101092.28;;;27.18;100.00
76358;BME280;65185;21.060;105.826;2023-09-18T01:42:17;101096.44;;;27.22;100.00
76358;BME280;65185;21.060;105.826;2023-09-18T01:44:46;101090.16;;;27.23;100.00
76358;BME280;65185;21.060;105.826;2023-09-18T01:47:16;101095.19;;;27.27;100.00
76358;BME280;65185;21.060;105.826;2023-09-18T01:49:44;101095.19;;;27.27;100.00
76358;BME280;65185;21.060;105.826;2023-09-18T01:52:12;101090.69;;;27.28;100.00
76358;BME280;65185;21.060;105.826;2023-09-18T01:54:39;101091.44;;;27.30;100.00
76358;BME280;65185;21.060;105.826;2023-09-18T01:57:06;101087.88;;;27.31;100.00
76358;BME280;65185;21.060;105.826;2023-09-18T01:59:34;101088.50;;;27.34;100.00
76358;BME280;65185;21.060;105.826;2023-09-18T02:02:01;101090.19;;;27.35;100.00
76358;BME280;65185;21.060;105.826;2023-09-18T02:04:33;101085.97;;;27.33;100.00
76358;BME280;65185;21.060;105.826;2023-09-18T02:07:00;101095.63;;;27.34;100.00
76358;BME280;65185;21.060;105.826;2023-09-18T02:09:27;101090.19;;;27.35;100.00
76358;BME280;65185;21.060;105.826;2023-09-18T02:11:54;101092.13;;;27.33;100.00
76358;BME280;65185;21.060;105.826;2023-09-18T02:14:21;101090.09;;;27.37;100.00
76358;BME280;65185;21.060;105.826;2023-09-18T02:16:48;101095.00;;;27.43;100.00
76358;BME280;65185;21.060;105.826;2023-09-18T02:19:15;101091.94;;;27.49;100.00
76358;BME280;65185;21.060;105.826;2023-09-18T02:21:44;101091.72;;;27.52;100.00
76358;BME280;65185;21.060;105.826;2023-09-18T02:24:10;101089.06;;;27.52;100.00
76358;BME280;65185;21.060;105.826;2023-09-18T02:26:38;101092.47;;;27.54;100.00
76358;BME280;65185;21.060;105.826;2023-09-18T02:29:08;101095.00;;;27.55;100.00
76358;BME280;65185;21.060;105.826;2023-09-18T02:31:39;101090.53;;;27.56;100.00
76358;BME280;65185;21.060;105.826;2023-09-18T02:34:06;101089.16;;;27.63;100.00
76358;BME280;65185;21.060;105.826;2023-09-18T02:36:35;101094.19;;;27.68;100.00
76358;BME280;65185;21.060;105.826;2023-09-18T02:39:02;101085.84;;;27.72;100.00
76358;BME280;65185;21.060;105.826;2023-09-18T02:41:29;101083.00;;;27.75;100.00
76358;BME280;65185;21.060;105.826;2023-09-18T02:43:56;101085.31;;;27.80;100.00
76358;BME280;65185;21.060;105.826;2023-09-18T02:46:23;101083.41;;;27.82;100.00
76358;BME280;65185;21.060;105.826;2023-09-18T02:48:50;101084.16;;;27.84;100.00
76358;BME280;65185;21.060;105.826;2023-09-18T02:51:17;101088.63;;;27.83;100.00
76358;BME280;65185;21.060;105.826;2023-09-18T02:53:44;101091.28;;;27.83;100.00
76358;BME280;65185;21.060;105.826;2023-09-18T02:56:12;101090.53;;;27.81;100.00
76358;BME280;65185;21.060;105.826;2023-09-18T02:58:39;101093.19;;;27.81;100.00
76358;BME280;65185;21.060;105.826;2023-09-18T03:01:07;101096.09;;;27.78;100.00
76358;BME280;65185;21.060;105.826;2023-09-18T03:03:35;101090.97;;;27.75;100.00
76358;BME280;65185;21.060;105.826;2023-09-18T03:06:03;101089.69;;;27.81;100.00
76358;BME280;65185;21.060;105.826;2023-09-18T03:08:31;101093.00;;;27.84;100.00
76358;BME280;65185;21.060;105.826;2023-09-18T03:10:58;101101.75;;;27.86;100.00
76358;BME280;65185;21.060;105.826;2023-09-18T03:13:27;101095.03;;;27.93;100.00
76358;BME280;65185;21.060;105.826;2023-09-18T03:15:55;101093.75;;;27.99;100.00
76358;BME280;65185;21.060;105.826;2023-09-18T03:18:25;101100.25;;;28.07;100.00
76358;BME280;65185;21.060;105.826;2023-09-18T03:20:52;101088.38;;;28.24;100.00
76358;BME280;65185;21.060;105.826;2023-09-18T03:23:19;101096.56;;;28.33;100.00
76358;BME280;65185;21.060;105.826;2023-09-18T03:25:46;101100.56;;;28.51;100.00
76358;BME280;65185;21.060;105.826;2023-09-18T03:28:13;101091.41;;;28.79;100.00
76358;BME280;65185;21.060;105.826;2023-09-18T03:30:40;101096.69;;;29.26;100.00
76358;BME280;65185;21.060;105.826;2023-09-18T03:33:08;101094.88;;;29.73;100.00
76358;BME280;65185;21.060;105.826;2023-09-18T03:35:46;101091.34;;;30.16;100.00
76358;BME280;65185;21.060;105.826;2023-09-18T03:38:14;101089.66;;;30.37;100.00
76358;BME280;65185;21.060;105.826;2023-09-18T03:40:41;101090.53;;;30.27;100.00
76358;BME280;65185;21.060;105.826;2023-09-18T03:43:10;101088.31;;;30.21;100.00
76358;BME280;65185;21.060;105.826;2023-09-18T03:45:38;101084.47;;;30.03;100.00
76358;BME280;65185;21.060;105.826;2023-09-18T03:48:06;101084.59;;;29.79;100.00
76358;BME280;65185;21.060;105.826;2023-09-18T03:50:34;101074.47;;;29.61;100.00
76358;BME280;65185;21.060;105.826;2023-09-18T03:53:01;101073.09;;;29.44;100.00
76358;BME280;65185;21.060;105.826;2023-09-18T03:55:28;101074.28;;;29.29;100.00
76358;BME280;65185;21.060;105.826;2023-09-18T03:57:56;101058.56;;;29.13;100.00
76358;BME280;65185;21.060;105.826;2023-09-18T04:00:23;101061.41;;;28.99;100.00
76358;BME280;65185;21.060;105.826;2023-09-18T04:02:50;101071.09;;;28.89;100.00
76358;BME280;65185;21.060;105.826;2023-09-18T04:05:17;101062.06;;;28.79;100.00
76358;BME280;65185;21.060;105.826;2023-09-18T04:07:44;101066.91;;;28.74;100.00
76358;BME280;65185;21.060;105.826;2023-09-18T04:10:13;101064.69;;;28.68;100.00
76358;BME280;65185;21.060;105.826;2023-09-18T04:12:49;101065.00;;;28.64;100.00
76358;BME280;65185;21.060;105.826;2023-09-18T04:15:17;101063.19;;;28.64;100.00
76358;BME280;65185;21.060;105.826;2023-09-18T04:17:45;101059.47;;;28.67;100.00
76358;BME280;65185;21.060;105.826;2023-09-18T04:20:12;101056.72;;;28.79;100.00
76358;BME280;65185;21.060;105.826;2023-09-18T04:22:45;101054.38;;;28.98;100.00
76358;BME280;65185;21.060;105.826;2023-09-18T04:25:16;101053.78;;;29.06;100.00
76358;BME280;65185;21.060;105.826;2023-09-18T04:27:43;101033.81;;;29.11;100.00
76358;BME280;65185;21.060;105.826;2023-09-18T04:30:10;101038.19;;;29.12;100.00
76358;BME280;65185;21.060;105.826;2023-09-18T04:32:38;101039.09;;;29.24;100.00
76358;BME280;65185;21.060;105.826;2023-09-18T04:35:05;101038.97;;;29.36;100.00
76358;BME280;65185;21.060;105.826;2023-09-18T04:37:37;101028.44;;;29.46;100.00
76358;BME280;65185;21.060;105.826;2023-09-18T04:40:06;101029.53;;;29.55;100.00
76358;BME280;65185;21.060;105.826;2023-09-18T04:42:36;101018.97;;;29.42;100.00
76358;BME280;65185;21.060;105.826;2023-09-18T04:45:03;101023.44;;;29.30;100.00
76358;BME280;65185;21.060;105.826;2023-09-18T04:47:31;101014.53;;;29.19;100.00
76358;BME280;65185;21.060;105.826;2023-09-18T04:49:58;101011.00;;;29.07;100.00
76358;BME280;65185;21.060;105.826;2023-09-18T04:52:25;101013.50;;;28.98;100.00
76358;BME280;65185;21.060;105.826;2023-09-18T04:54:52;101010.06;;;28.85;100.00
76358;BME280;65185;21.060;105.826;2023-09-18T04:57:20;101007.25;;;28.75;100.00
76358;BME280;65185;21.060;105.826;2023-09-18T04:59:48;101001.53;;;28.69;100.00
76358;BME280;65185;21.060;105.826;2023-09-18T05:02:15;101001.97;;;28.63;100.00
76358;BME280;65185;21.060;105.826;2023-09-18T05:04:43;100997.22;;;28.55;100.00
76358;BME280;65185;21.060;105.826;2023-09-18T05:07:10;100995.72;;;28.51;100.00
76358;BME280;65185;21.060;105.826;2023-09-18T05:09:37;101006.13;;;28.43;100.00
76358;BME280;65185;21.060;105.826;2023-09-18T05:12:06;100999.00;;;28.31;100.00
76358;BME280;65185;21.060;105.826;2023-09-18T05:14:40;100997.03;;;28.22;100.00
76358;BME280;65185;21.060;105.826;2023-09-18T05:17:10;100999.41;;;28.14;100.00
76358;BME280;65185;21.060;105.826;2023-09-18T05:19:38;100992.59;;;28.10;100.00
76358;BME280;65185;21.060;105.826;2023-09-18T05:22:05;100992.91;;;28.05;100.00
76358;BME280;65185;21.060;105.826;2023-09-18T05:24:32;100995.69;;;28.04;100.00
76358;BME280;65185;21.060;105.826;2023-09-18T05:27:00;100986.22;;;28.00;100.00
76358;BME280;65185;21.060;105.826;2023-09-18T05:29:27;100976.66;;;27.97;100.00
76358;BME280;65185;21.060;105.826;2023-09-18T05:31:54;100973.03;;;27.98;100.00
76358;BME280;65185;21.060;105.826;2023-09-18T05:34:20;100971.22;;;27.99;100.00
76358;BME280;65185;21.060;105.826;2023-09-18T05:36:48;100972.03;;;27.99;100.00
76358;BME280;65185;21.060;105.826;2023-09-18T05:39:15;100971.22;;;27.99;100.00
76358;BME280;65185;21.060;105.826;2023-09-18T05:41:42;100964.28;;;27.96;100.00
76358;BME280;65185;21.060;105.826;2023-09-18T05:44:09;100960.88;;;27.94;100.00
76358;BME280;65185;21.060;105.826;2023-09-18T05:46:36;100962.69;;;27.94;100.00
76358;BME280;65185;21.060;105.826;2023-09-18T05:49:03;100953.88;;;27.93;100.00
76358;BME280;65185;21.060;105.826;2023-09-18T05:51:30;100952.22;;;27.91;100.00
76358;BME280;65185;21.060;105.826;2023-09-18T05:53:58;100956.69;;;27.90;100.00
76358;BME280;65185;21.060;105.826;2023-09-18T05:56:26;100945.22;;;27.90;100.00
76358;BME280;65185;21.060;105.826;2023-09-18T05:58:53;100941.81;;;27.88;100.00
76358;BME280;65185;21.060;105.826;2023-09-18T06:01:21;100935.63;;;27.87;100.00
76358;BME280;65185;21.060;105.826;2023-09-18T06:03:48;100936.94;;;27.82;100.00
76358;BME280;65185;21.060;105.826;2023-09-18T06:06:21;100944.91;;;27.82;100.00
76358;BME280;65185;21.060;105.826;2023-09-18T06:08:48;100937.66;;;27.84;100.00
76358;BME280;65185;21.060;105.826;2023-09-18T06:11:15;100926.28;;;27.82;100.00
76358;BME280;65185;21.060;105.826;2023-09-18T06:13:43;100931.38;;;27.85;100.00
76358;BME280;65185;21.060;105.826;2023-09-18T06:16:10;100921.44;;;27.87;100.00
76358;BME280;65185;21.060;105.826;2023-09-18T06:18:37;100922.53;;;27.84;100.00
76358;BME280;65185;21.060;105.826;2023-09-18T06:21:04;100926.91;;;27.85;100.00
76358;BME280;65185;21.060;105.826;2023-09-18T06:23:32;100916.25;;;27.85;100.00
76358;BME280;65185;21.060;105.826;2023-09-18T06:25:59;100913.56;;;27.85;100.00
76358;BME280;65185;21.060;105.826;2023-09-18T06:28:26;100908.25;;;27.85;100.00
76358;BME280;65185;21.060;105.826;2023-09-18T06:30:53;100898.56;;;27.84;100.00
76358;BME280;65185;21.060;105.826;2023-09-18T06:33:20;100898.56;;;27.84;100.00
76358;BME280;65185;21.060;105.826;2023-09-18T06:35:47;100894.94;;;27.85;100.00
76358;BME280;65185;21.060;105.826;2023-09-18T06:38:14;100887.69;;;27.87;100.00
76358;BME280;65185;21.060;105.826;2023-09-18T06:40:41;100880.13;;;27.94;100.00
76358;BME280;65185;21.060;105.826;2023-09-18T06:43:08;100877.13;;;27.98;100.00
76358;BME280;65185;21.060;105.826;2023-09-18T06:45:35;100873.28;;;28.02;100.00
76358;BME280;65185;21.060;105.826;2023-09-18T06:48:04;100864.81;;;28.08;100.00
76358;BME280;65185;21.060;105.826;2023-09-18T06:50:31;100871.50;;;28.14;100.00
76358;BME280;65185;21.060;105.826;2023-09-18T06:52:59;100860.84;;;28.14;100.00
76358;BME280;65185;21.060;105.826;2023-09-18T06:55:26;100863.03;;;28.20;100.00
76358;BME280;65185;21.060;105.826;2023-09-18T06:57:53;100856.88;;;28.19;100.00
76358;BME280;65185;21.060;105.826;2023-09-18T07:00:20;100845.97;;;28.22;100.00
76358;BME280;65185;21.060;105.826;2023-09-18T07:02:47;100853.50;;;28.28;100.00
76358;BME280;65185;21.060;105.826;2023-09-18T07:05:15;100845.03;;;28.34;100.00
76358;BME280;65185;21.060;105.826;2023-09-18T07:07:42;100850.75;;;28.41;100.00
76358;BME280;65185;21.060;105.826;2023-09-18T07:10:09;100843.38;;;28.44;100.00
76358;BME280;65185;21.060;105.826;2023-09-18T07:12:36;100845.66;;;28.49;100.00
76358;BME280;65185;21.060;105.826;2023-09-18T07:15:04;100819.75;;;28.51;100.00
76358;BME280;65185;21.060;105.826;2023-09-18T07:17:33;100820.16;;;28.58;100.00
76358;BME280;65185;21.060;105.826;2023-09-18T07:20:01;100811.56;;;28.65;100.00
76358;BME280;65185;21.060;105.826;2023-09-18T07:22:35;100809.75;;;28.77;100.00
76358;BME280;65185;21.060;105.826;2023-09-18T07:25:02;100800.66;;;28.79;100.00
76358;BME280;65185;21.060;105.826;2023-09-18T07:27:30;100786.25;;;28.82;100.00
76358;BME280;65185;21.060;105.826;2023-09-18T07:29:57;100778.13;;;28.83;100.00
76358;BME280;65185;21.060;105.826;2023-09-18T07:32:25;100769.13;;;28.84;100.00
76358;BME280;65185;21.060;105.826;2023-09-18T07:34:54;100764.41;;;28.88;100.00
76358;BME280;65185;21.060;105.826;2023-09-18T07:37:22;100758.84;;;28.91;100.00
76358;BME280;65185;21.060;105.826;2023-09-18T07:39:49;100750.72;;;28.92;100.00
76358;BME280;65185;21.060;105.826;2023-09-18T07:42:16;100753.13;;;28.95;100.00
76358;BME280;65185;21.060;105.826;2023-09-18T07:44:43;100750.31;;;28.97;100.00
76358;BME280;65185;21.060;105.826;2023-09-18T07:47:10;100744.03;;;28.98;100.00
76358;BME280;65185;21.060;105.826;2023-09-18T07:49:37;100746.56;;;28.99;100.00
76358;BME280;65185;21.060;105.826;2023-09-18T07:52:05;100745.59;;;29.00;100.00
76358;BME280;65185;21.060;105.826;2023-09-18T07:54:32;100736.50;;;29.03;100.00
76358;BME280;65185;21.060;105.826;2023-09-18T07:56:59;100731.28;;;29.01;100.00
76358;BME280;65185;21.060;105.826;2023-09-18T07:59:27;100728.03;;;28.98;100.00
76358;BME280;65185;21.060;105.826;2023-09-18T08:01:55;100719.16;;;28.97;100.00
76358;BME280;65185;21.060;105.826;2023-09-18T08:04:22;100708.75;;;28.94;100.00
76358;BME280;65185;21.060;105.826;2023-09-18T08:06:49;100702.28;;;28.97;100.00
76358;BME280;65185;21.060;105.826;2023-09-18T08:09:16;100698.22;;;28.93;100.00
76358;BME280;65185;21.060;105.826;2023-09-18T08:11:43;100705.84;;;28.86;100.00
76358;BME280;65185;21.060;105.826;2023-09-18T08:14:10;100700.03;;;28.81;100.00
76358;BME280;65185;21.060;105.826;2023-09-18T08:16:41;100688.66;;;28.79;100.00
76358;BME280;65185;21.060;105.826;2023-09-18T08:19:08;100681.63;;;28.78;100.00
76358;BME280;65185;21.060;105.826;2023-09-18T08:21:35;100686.84;;;28.80;100.00
76358;BME280;65185;21.060;105.826;2023-09-18T08:24:03;100685.84;;;28.81;100.00
76358;BME280;65185;21.060;105.826;2023-09-18T08:26:30;100683.91;;;28.83;100.00
76358;BME280;65185;21.060;105.826;2023-09-18T08:28:57;100687.31;;;28.85;100.00
76358;BME280;65185;21.060;105.826;2023-09-18T08:31:24;100682.09;;;28.83;100.00
76358;BME280;65185;21.060;105.826;2023-09-18T08:33:53;100682.81;;;28.85;100.00
76358;BME280;65185;21.060;105.826;2023-09-18T08:36:20;100690.94;;;28.84;100.00
76358;BME280;65185;21.060;105.826;2023-09-18T08:38:48;100692.63;;;28.85;100.00
76358;BME280;65185;21.060;105.826;2023-09-18T08:41:18;100694.44;;;28.84;100.00
76358;BME280;65185;21.060;105.826;2023-09-18T08:43:48;100693.63;;;28.84;100.00
76358;BME280;65185;21.060;105.826;2023-09-18T08:46:16;100694.44;;;28.84;100.00
76358;BME280;65185;21.060;105.826;2023-09-18T08:48:43;100693.34;;;28.87;100.00
76358;BME280;65185;21.060;105.826;2023-09-18T08:51:11;100694.44;;;28.84;100.00
76358;BME280;65185;21.060;105.826;2023-09-18T08:53:40;100696.88;;;28.87;100.00
76358;BME280;65185;21.060;105.826;2023-09-18T08:56:08;100699.56;;;28.87;100.00
76358;BME280;65185;21.060;105.826;2023-09-18T08:58:37;100699.88;;;28.94;100.00
76358;BME280;65185;21.060;105.826;2023-09-18T09:01:07;100697.81;;;28.97;100.00
76358;BME280;65185;21.060;105.826;2023-09-18T09:03:36;100707.16;;;28.92;100.00
76358;BME280;65185;21.060;105.826;2023-09-18T09:06:04;100699.78;;;28.84;100.00
76358;BME280;65185;21.060;105.826;2023-09-18T09:08:31;100700.03;;;28.81;100.00
76358;BME280;65185;21.060;105.826;2023-09-18T09:10:58;100697.25;;;28.83;100.00
76358;BME280;65185;21.060;105.826;2023-09-18T09:13:26;100696.28;;;28.84;100.00
76358;BME280;65185;21.060;105.826;2023-09-18T09:15:55;100697.63;;;28.89;100.00
76358;BME280;65185;21.060;105.826;2023-09-18T09:18:27;100694.44;;;28.95;100.00
76358;BME280;65185;21.060;105.826;2023-09-18T09:20:58;100694.66;;;29.03;100.00
76358;BME280;65185;21.060;105.826;2023-09-18T09:23:49;100698.88;;;29.06;100.00
76358;BME280;65185;21.060;105.826;2023-09-18T09:26:21;100703.25;;;29.07;100.00
76358;BME280;65185;21.060;105.826;2023-09-18T09:28:51;100697.66;;;29.10;100.00
76358;BME280;65185;21.060;105.826;2023-09-18T09:31:27;100701.31;;;29.09;100.00
76358;BME280;65185;21.060;105.826;2023-09-18T09:33:54;100699.88;;;29.05;100.00
76358;BME280;65185;21.060;105.826;2023-09-18T09:36:25;100704.47;;;29.03;100.00
76358;BME280;65185;21.060;105.826;2023-09-18T09:38:57;100701.22;;;28.99;100.00
76358;BME280;65185;21.060;105.826;2023-09-18T09:41:25;100704.97;;;28.97;100.00
76358;BME280;65185;21.060;105.826;2023-09-18T09:43:54;100701.94;;;29.01;100.00
76358;BME280;65185;21.060;105.826;2023-09-18T09:46:24;100701.34;;;28.98;100.00
76358;BME280;65185;21.060;105.826;2023-09-18T09:49:07;100714.41;;;29.01;100.00
76358;BME280;65185;21.060;105.826;2023-09-18T09:51:34;100711.03;;;28.99;100.00
76358;BME280;65185;21.060;105.826;2023-09-18T09:54:01;100705.22;;;28.94;100.00
76358;BME280;65185;21.060;105.826;2023-09-18T09:57:03;100708.03;;;28.92;100.00
76358;BME280;65185;21.060;105.826;2023-09-18T09:59:30;100708.50;;;28.86;100.00
76358;BME280;65185;21.060;105.826;2023-09-18T10:01:59;100706.22;;;28.82;100.00
76358;BME280;65185;21.060;105.826;2023-09-18T10:04:29;100714.59;;;28.77;100.00
76358;BME280;65185;21.060;105.826;2023-09-18T10:07:08;100714.47;;;28.68;100.00
76358;BME280;65185;21.060;105.826;2023-09-18T10:09:39;100717.50;;;28.63;100.00
76358;BME280;65185;21.060;105.826;2023-09-18T10:12:12;100714.34;;;28.58;100.00
76358;BME280;65185;21.060;105.826;2023-09-18T10:14:43;100717.63;;;28.50;100.00
76358;BME280;65185;21.060;105.826;2023-09-18T10:17:19;100725.47;;;28.41;100.00
76358;BME280;65185;21.060;105.826;2023-09-18T10:20:12;100726.22;;;28.43;100.00
76358;BME280;65185;21.060;105.826;2023-09-18T10:22:54;100719.16;;;28.42;100.00
76358;BME280;65185;21.060;105.826;2023-09-18T10:25:29;100714.56;;;28.44;100.00
76358;BME280;65185;21.060;105.826;2023-09-18T10:27:59;100716.63;;;28.40;100.00
76358;BME280;65185;21.060;105.826;2023-09-18T10:30:30;100718.69;;;28.37;100.00
76358;BME280;65185;21.060;105.826;2023-09-18T10:33:00;100722.69;;;28.31;100.00
76358;BME280;65185;21.060;105.826;2023-09-18T10:35:28;100717.47;;;28.41;100.00
76358;BME280;65185;21.060;105.826;2023-09-18T10:37:56;100710.31;;;28.41;100.00
76358;BME280;65185;21.060;105.826;2023-09-18T10:40:25;100710.69;;;28.37;100.00
76358;BME280;65185;21.060;105.826;2023-09-18T10:42:54;100710.94;;;28.34;100.00
76358;BME280;65185;21.060;105.826;2023-09-18T10:45:24;100709.09;;;28.34;100.00
76358;BME280;65185;21.060;105.826;2023-09-18T10:47:53;100707.66;;;28.30;100.00
76358;BME280;65185;21.060;105.826;2023-09-18T10:50:25;100711.88;;;28.22;100.00
76358;BME280;65185;21.060;105.826;2023-09-18T10:52:52;100710.19;;;28.21;100.00
76358;BME280;65185;21.060;105.826;2023-09-18T10:55:21;100716.50;;;28.31;100.00
76358;BME280;65185;21.060;105.826;2023-09-18T10:57:55;100724.47;;;28.31;100.00
76358;BME280;65185;21.060;105.826;2023-09-18T11:00:26;100736.34;;;28.27;100.00
76358;BME280;65185;21.060;105.826;2023-09-18T11:03:16;100736.72;;;28.22;100.00
76358;BME280;65185;21.060;105.826;2023-09-18T11:05:47;100735.88;;;28.22;100.00
76358;BME280;65185;21.060;105.826;2023-09-18T11:08:47;100738.66;;;28.20;100.00
76358;BME280;65185;21.060;105.826;2023-09-18T11:11:18;100748.56;;;28.18;100.00
76358;BME280;65185;21.060;105.826;2023-09-18T11:13:50;100754.19;;;28.26;100.00
76358;BME280;65185;21.060;105.826;2023-09-18T11:19:05;100766.53;;;28.38;100.00
76358;BME280;65185;21.060;105.826;2023-09-18T11:21:34;100772.34;;;28.43;100.00
76358;BME280;65185;21.060;105.826;2023-09-18T11:26:35;100786.34;;;28.58;100.00
76358;BME280;65185;21.060;105.826;2023-09-18T11:29:06;100786.72;;;28.53;100.00
76358;BME280;65185;21.060;105.826;2023-09-18T11:31:48;100793.47;;;28.46;100.00
76358;BME280;65185;21.060;105.826;2023-09-18T11:34:32;100799.31;;;28.74;100.00
76358;BME280;65185;21.060;105.826;2023-09-18T11:37:20;100808.78;;;28.67;100.00
76358;BME280;65185;21.060;105.826;2023-09-18T11:39:47;100805.25;;;28.66;100.00
76358;BME280;65185;21.060;105.826;2023-09-18T11:42:20;100802.34;;;28.69;100.00
76358;BME280;65185;21.060;105.826;2023-09-18T11:44:52;100799.06;;;28.54;100.00
76358;BME280;65185;21.060;105.826;2023-09-18T11:47:25;100806.91;;;28.45;100.00
76358;BME280;65185;21.060;105.826;2023-09-18T11:50:05;100826.03;;;28.39;100.00
76358;BME280;65185;21.060;105.826;2023-09-18T11:52:37;100826.50;;;28.33;100.00
76358;BME280;65185;21.060;105.826;2023-09-18T11:55:06;100829.16;;;28.33;100.00
76358;BME280;65185;21.060;105.826;2023-09-18T11:57:37;100831.22;;;28.29;100.00
76358;BME280;65185;21.060;105.826;2023-09-18T12:00:19;100839.94;;;28.31;100.00
76358;BME280;65185;21.060;105.826;2023-09-18T12:02:50;100837.28;;;28.31;100.00
76358;BME280;65185;21.060;105.826;2023-09-18T12:05:17;100847.94;;;28.31;100.00
76358;BME280;65185;21.060;105.826;2023-09-18T12:07:47;100841.88;;;28.29;100.00
76358;BME280;65185;21.060;105.826;2023-09-18T12:10:17;100858.72;;;28.30;100.00
76358;BME280;65185;21.060;105.826;2023-09-18T12:12:48;100854.13;;;28.32;100.00
76358;BME280;65185;21.060;105.826;2023-09-18T12:15:17;100851.59;;;28.30;100.00
76358;BME280;65185;21.060;105.826;2023-09-18T12:17:46;100863.81;;;28.33;100.00
76358;BME280;65185;21.060;105.826;2023-09-18T12:20:16;100863.69;;;28.34;100.00
76358;BME280;65185;21.060;105.826;2023-09-18T12:22:50;100870.94;;;28.32;100.00
76358;BME280;65185;21.060;105.826;2023-09-18T12:25:17;100870.13;;;28.32;100.00
76358;BME280;65185;21.060;105.826;2023-09-18T12:27:44;100878.25;;;28.30;100.00
76358;BME280;65185;21.060;105.826;2023-09-18T12:30:12;100881.41;;;28.35;100.00
76358;BME280;65185;21.060;105.826;2023-09-18T12:32:47;100890.47;;;28.33;100.00
76358;BME280;65185;21.060;105.826;2023-09-18T12:35:14;100886.44;;;28.27;100.00
76358;BME280;65185;21.060;105.826;2023-09-18T12:37:41;100894.69;;;28.24;100.00
76358;BME280;65185;21.060;105.826;2023-09-18T12:40:25;100896.13;;;28.17;100.00